Time;durP1;ratioP1;P1;durP2;ratioP2;P2;SDS_P1;SDS_P2;PMS_P1;PMS_P2;Temp;Humidity;BMP_temperature;BMP_pressure;BME280_temperature;BME280_humidity;BME280_pressure;Samples;Min_cycle;Max_cycle;Signal;HPM_P1;HPM_P2
2024/01/06 00:01:12;;;;;;;10.80;7.57;;;5.50;99.90;;;;;;5094777;28;20342;-45
2024/01/06 00:03:37;;;;;;;12.20;8.40;;;6.00;1.00;;;;;;5095286;28;20177;-44
2024/01/06 00:06:05;;;;;;;10.83;7.70;;;6.70;1.00;;;;;;5094882;28;20446;-45
2024/01/06 00:08:31;;;;;;;8.47;7.03;;;7.40;1.00;;;;;;5095265;28;20479;-47
2024/01/06 00:10:57;;;;;;;8.97;7.17;;;7.90;1.00;;;;;;5077607;28;20897;-47
2024/01/06 00:13:22;;;;;;;9.23;6.40;;;8.30;1.00;;;;;;5096884;28;20181;-45
2024/01/06 00:15:48;;;;;;;9.27;5.77;;;8.60;1.00;;;;;;5095162;28;20492;-50
2024/01/06 00:18:14;;;;;;;5.70;4.90;;;8.80;1.00;;;;;;5096434;28;20180;-48
2024/01/06 00:20:39;;;;;;;5.73;5.00;;;9.00;1.00;;;;;;5096336;28;20180;-42
2024/01/06 00:23:05;;;;;;;6.27;4.60;;;9.00;97.30;;;;;;5094536;28;20279;-41
2024/01/06 00:25:30;;;;;;;4.73;3.50;;;8.60;99.90;;;;;;5095196;28;20497;-42
2024/01/06 00:27:56;;;;;;;7.27;3.70;;;8.30;1.00;;;;;;5096570;28;20450;-44
2024/01/06 00:30:21;;;;;;;6.10;3.50;;;7.90;99.90;;;;;;5096228;28;20180;-42
2024/01/06 00:32:47;;;;;;;5.97;4.23;;;7.50;32.70;;;;;;5096432;28;20233;-43
2024/01/06 00:35:13;;;;;;;4.80;4.30;;;7.10;63.40;;;;;;5094015;28;20180;-42
2024/01/06 00:37:38;;;;;;;3.90;2.77;;;6.90;99.90;;;;;;5094261;28;20176;-41
2024/01/06 00:40:05;;;;;;;7.40;4.43;;;6.70;1.00;;;;;;5097034;28;20160;-46
2024/01/06 00:42:30;;;;;;;4.60;3.50;;;6.60;1.00;;;;;;5082039;28;20173;-43
2024/01/06 00:44:56;;;;;;;5.20;4.60;;;6.50;46.20;;;;;;5082010;28;20721;-42
2024/01/06 00:47:24;;;;;;;6.80;5.57;;;6.40;99.90;;;;;;5100188;28;20180;-42
2024/01/06 00:49:50;;;;;;;8.87;6.60;;;6.30;99.90;;;;;;5100637;28;20180;-43
2024/01/06 00:52:15;;;;;;;6.63;6.03;;;6.20;99.90;;;;;;5100501;28;20415;-44
2024/01/06 00:54:41;;;;;;;6.60;6.00;;;6.20;1.00;;;;;;5098958;28;20418;-44
2024/01/06 00:57:07;;;;;;;8.40;6.40;;;6.10;1.00;;;;;;5079656;28;20226;-44
2024/01/06 00:59:33;;;;;;;6.47;5.83;;;6.00;1.00;;;;;;5077545;28;20172;-45
2024/01/06 01:01:58;;;;;;;7.23;6.07;;;6.00;1.00;;;;;;5096119;28;20614;-42
2024/01/06 01:04:24;;;;;;;9.27;6.10;;;5.90;17.10;;;;;;5096261;28;20168;-43
2024/01/06 01:06:50;;;;;;;6.70;5.87;;;5.90;52.20;;;;;;5095235;28;20219;-43
2024/01/06 01:09:16;;;;;;;6.90;6.20;;;5.90;95.10;;;;;;5097023;28;20179;-43
2024/01/06 01:11:42;;;;;;;6.93;5.33;;;5.80;99.90;;;;;;5097858;28;20536;-43
2024/01/06 01:14:07;;;;;;;9.00;5.70;;;5.80;99.90;;;;;;5099184;28;20533;-46
2024/01/06 01:16:33;;;;;;;7.37;5.80;;;5.80;99.90;;;;;;5100079;28;20208;-42
2024/01/06 01:18:59;;;;;;;7.83;5.80;;;5.70;99.90;;;;;;5099554;28;20446;-43
2024/01/06 01:21:24;;;;;;;7.10;5.87;;;5.70;99.90;;;;;;5100331;28;20183;-43
2024/01/06 01:23:50;;;;;;;5.60;5.10;;;5.70;99.90;;;;;;5099202;28;20199;-43
2024/01/06 01:26:16;;;;;;;9.93;5.67;;;5.60;99.90;;;;;;5098715;28;20217;-43
2024/01/06 01:28:42;;;;;;;10.00;6.77;;;5.60;1.00;;;;;;5096654;28;20180;-41
2024/01/06 01:31:08;;;;;;;6.27;5.70;;;5.60;1.00;;;;;;5097811;28;20218;-44
2024/01/06 01:33:33;;;;;;;7.50;5.90;;;5.60;1.00;;;;;;5097748;28;20461;-45
2024/01/06 01:35:59;;;;;;;7.37;5.93;;;5.50;1.00;;;;;;5099344;28;20536;-43
2024/01/06 01:38:25;;;;;;;7.87;6.13;;;5.50;1.00;;;;;;5082511;28;20259;-44
2024/01/06 01:40:50;;;;;;;8.80;7.00;;;5.50;1.00;;;;;;5099442;28;20474;-43
2024/01/06 01:43:19;;;;;;;7.30;5.20;;;5.50;1.00;;;;;;5098160;28;20237;-46
2024/01/06 01:45:50;;;;;;;6.23;5.63;;;5.50;1.00;;;;;;5098718;28;20286;-42
2024/01/06 01:48:16;;;;;;;7.90;6.20;;;5.50;1.00;;;;;;5097832;28;20430;-42
2024/01/06 01:50:41;;;;;;;6.77;4.70;;;5.50;1.00;;;;;;5097421;28;20816;-44
2024/01/06 01:53:07;;;;;;;5.87;5.27;;;5.40;1.00;;;;;;5095267;28;20183;-43
2024/01/06 01:55:33;;;;;;;7.73;5.43;;;5.40;1.00;;;;;;5097023;28;20693;-42
2024/01/06 01:57:58;;;;;;;6.17;5.23;;;5.40;1.00;;;;;;5095972;28;20237;-43
2024/01/06 02:00:24;;;;;;;6.83;5.13;;;5.40;1.00;;;;;;5096585;28;20558;-41
2024/01/06 02:02:50;;;;;;;6.27;5.50;;;5.40;1.00;;;;;;5095849;28;20223;-40
2024/01/06 02:05:15;;;;;;;6.77;5.87;;;5.40;1.00;;;;;;5096852;28;20179;-42
2024/01/06 02:07:41;;;;;;;7.53;5.63;;;5.30;1.00;;;;;;5097087;28;20180;-44
2024/01/06 02:10:07;;;;;;;8.27;5.40;;;5.30;1.00;;;;;;5096847;28;20237;-44
2024/01/06 02:12:32;;;;;;;11.23;5.50;;;5.30;1.00;;;;;;5096996;28;20216;-43
2024/01/06 02:14:58;;;;;;;6.40;4.37;;;5.30;1.00;;;;;;5097012;28;20428;-44
2024/01/06 02:17:25;;;;;;;9.67;5.27;;;5.30;1.00;;;;;;5096530;28;20207;-44
2024/01/06 02:19:51;;;;;;;6.83;5.40;;;5.30;1.00;;;;;;5097378;28;20172;-46
2024/01/06 02:22:16;;;;;;;5.83;4.50;;;5.30;1.00;;;;;;5097969;28;20433;-42
2024/01/06 02:24:42;;;;;;;5.50;4.90;;;5.30;1.00;;;;;;5097629;28;20177;-42
2024/01/06 02:27:07;;;;;;;6.70;5.10;;;5.30;1.00;;;;;;5096274;28;20194;-43
2024/01/06 02:29:33;;;;;;;5.57;4.63;;;5.30;1.00;;;;;;5097836;28;20184;-43
2024/01/06 02:32:00;;;;;;;5.70;4.83;;;5.30;1.00;;;;;;5097718;28;20598;-42
2024/01/06 02:34:25;;;;;;;5.00;4.50;;;5.30;1.00;;;;;;5096790;28;20223;-44
2024/01/06 02:36:51;;;;;;;5.00;3.70;;;5.30;1.00;;;;;;5097616;28;20502;-42
2024/01/06 02:39:16;;;;;;;5.03;4.27;;;5.20;1.00;;;;;;5098343;28;20558;-44
2024/01/06 02:41:42;;;;;;;5.60;4.30;;;5.30;1.00;;;;;;5096837;28;20230;-44
2024/01/06 02:44:08;;;;;;;5.23;4.70;;;5.20;1.00;;;;;;5097618;28;20168;-41
2024/01/06 02:46:34;;;;;;;7.03;5.30;;;5.20;1.00;;;;;;5097530;28;20184;-42
2024/01/06 02:48:59;;;;;;;6.20;5.20;;;5.20;1.00;;;;;;5096747;28;20736;-46
2024/01/06 02:51:25;;;;;;;5.83;4.97;;;5.10;1.00;;;;;;5097322;28;20293;-42
2024/01/06 02:53:50;;;;;;;5.80;4.70;;;5.10;1.00;;;;;;5096235;28;20252;-42
2024/01/06 02:56:16;;;;;;;5.07;4.53;;;5.10;1.00;;;;;;5097900;28;20303;-43
2024/01/06 02:58:41;;;;;;;6.33;4.33;;;5.10;1.00;;;;;;5097032;28;20173;-45
2024/01/06 03:01:07;;;;;;;7.43;4.80;;;5.10;1.00;;;;;;5094676;28;20232;-45
2024/01/06 03:03:32;;;;;;;6.03;4.60;;;5.10;1.00;;;;;;5095327;28;20173;-42
2024/01/06 03:05:58;;;;;;;5.07;3.90;;;5.10;1.00;;;;;;5094442;28;20203;-42
2024/01/06 03:08:23;;;;;;;7.60;4.67;;;5.10;1.00;;;;;;5095758;28;20172;-45
2024/01/06 03:10:49;;;;;;;5.43;4.03;;;5.10;1.00;;;;;;5095638;28;20188;-42
2024/01/06 03:13:15;;;;;;;6.73;4.10;;;5.10;1.00;;;;;;5095383;28;20172;-44
2024/01/06 03:15:40;;;;;;;6.10;3.40;;;5.00;1.00;;;;;;5096964;28;20289;-43
2024/01/06 03:18:06;;;;;;;4.87;3.87;;;5.00;1.00;;;;;;5096568;28;20172;-44
2024/01/06 03:20:31;;;;;;;3.67;2.83;;;5.00;1.00;;;;;;5097120;28;20192;-45
2024/01/06 03:23:00;;;;;;;4.13;3.23;;;5.00;1.00;;;;;;5096678;28;20521;-43
2024/01/06 03:25:26;;;;;;;3.70;3.20;;;4.90;1.00;;;;;;5096772;28;20618;-43
2024/01/06 03:27:51;;;;;;;10.93;3.67;;;4.90;1.00;;;;;;5095949;28;20516;-44
2024/01/06 03:30:17;;;;;;;5.13;2.87;;;4.90;1.00;;;;;;5095257;28;20176;-42
2024/01/06 03:32:42;;;;;;;3.50;3.20;;;4.90;1.00;;;;;;5094530;28;20260;-42
2024/01/06 03:35:08;;;;;;;8.40;3.20;;;4.90;1.00;;;;;;5094899;28;20260;-42
2024/01/06 03:37:34;;;;;;;6.07;3.40;;;4.90;1.00;;;;;;5094817;28;20594;-42
2024/01/06 03:40:00;;;;;;;7.90;4.00;;;5.20;99.90;;;;;;5094429;28;20427;-42
2024/01/06 03:42:25;;;;;;;4.03;3.23;;;5.60;1.00;;;;;;5094964;28;20419;-42
2024/01/06 03:44:51;;;;;;;7.20;4.77;;;6.10;1.00;;;;;;5095124;28;20739;-43
2024/01/06 03:47:17;;;;;;;6.03;3.77;;;6.30;1.00;;;;;;5093908;28;20188;-46
2024/01/06 03:49:43;;;;;;;5.50;4.03;;;6.10;1.00;;;;;;5094680;28;20199;-43
2024/01/06 03:52:09;;;;;;;3.90;3.50;;;5.80;1.00;;;;;;5094357;28;20418;-42
2024/01/06 03:54:34;;;;;;;7.70;3.80;;;5.60;1.00;;;;;;5096144;28;20487;-41
2024/01/06 03:57:00;;;;;;;6.23;3.40;;;5.50;99.90;;;;;;5095372;28;20218;-41
2024/01/06 03:59:25;;;;;;;6.23;3.53;;;5.40;99.90;;;;;;5096605;28;20196;-39
2024/01/06 04:01:51;;;;;;;4.80;3.80;;;5.30;99.90;;;;;;5095438;28;20502;-40
2024/01/06 04:04:16;;;;;;;6.07;2.80;;;5.20;99.90;;;;;;5095736;28;20184;-42
2024/01/06 04:06:42;;;;;;;6.37;3.57;;;5.10;99.90;;;;;;5095428;28;20188;-40
2024/01/06 04:09:09;;;;;;;8.43;3.60;;;5.00;99.90;;;;;;5094574;28;20180;-42
2024/01/06 04:11:35;;;;;;;3.00;2.67;;;5.00;99.90;;;;;;5094892;28;20199;-44
2024/01/06 04:14:00;;;;;;;5.97;3.27;;;5.00;1.00;;;;;;5093546;28;20423;-41
2024/01/06 04:16:29;;;;;;;4.40;3.30;;;4.90;1.00;;;;;;5099011;28;20631;-42
2024/01/06 04:18:54;;;;;;;6.33;2.53;;;4.90;1.00;;;;;;5099755;28;20245;-40
2024/01/06 04:21:20;;;;;;;4.20;2.70;;;5.00;1.00;;;;;;5100044;28;20836;-40
2024/01/06 04:23:45;;;;;;;7.33;3.00;;;5.00;1.00;;;;;;5100186;28;20175;-43
2024/01/06 04:26:11;;;;;;;4.33;2.87;;;4.90;99.90;;;;;;5099277;28;20168;-40
2024/01/06 04:28:36;;;;;;;4.77;3.40;;;4.90;99.90;;;;;;5100034;28;20260;-45
2024/01/06 04:31:02;;;;;;;5.00;2.40;;;4.90;99.90;;;;;;5099562;28;20245;-42
2024/01/06 04:33:27;;;;;;;4.40;2.60;;;4.90;99.90;;;;;;5099900;28;20245;-42
2024/01/06 04:35:53;;;;;;;5.93;2.40;;;4.80;99.90;;;;;;5099471;28;20471;-41
2024/01/06 04:38:18;;;;;;;5.60;2.50;;;4.80;99.90;;;;;;5100278;28;20420;-40
2024/01/06 04:40:44;;;;;;;4.03;2.70;;;4.80;99.90;;;;;;5098722;28;20253;-43
2024/01/06 04:43:10;;;;;;;4.10;2.60;;;4.80;99.90;;;;;;5099981;28;20173;-40
2024/01/06 04:45:37;;;;;;;3.77;2.90;;;4.80;99.90;;;;;;5098414;28;20172;-43
2024/01/06 04:48:03;;;;;;;4.23;2.23;;;4.80;99.90;;;;;;5096990;28;20196;-41
2024/01/06 04:50:29;;;;;;;3.23;2.23;;;4.80;99.90;;;;;;5099183;28;20434;-40
2024/01/06 04:52:55;;;;;;;3.80;2.10;;;4.70;99.90;;;;;;5099791;28;20540;-42
2024/01/06 04:55:20;;;;;;;5.03;2.37;;;4.70;99.90;;;;;;5099542;28;20428;-41
2024/01/06 04:57:46;;;;;;;2.83;2.03;;;4.70;99.90;;;;;;5099772;28;20577;-41
2024/01/06 05:00:12;;;;;;;4.60;2.77;;;4.70;99.90;;;;;;5099587;28;20315;-41
2024/01/06 05:02:37;;;;;;;4.03;2.23;;;4.70;99.90;;;;;;5099101;28;20470;-42
2024/01/06 05:05:03;;;;;;;3.93;2.37;;;4.70;99.90;;;;;;5099456;28;20409;-44
2024/01/06 05:07:29;;;;;;;6.97;2.67;;;4.70;99.90;;;;;;5099117;28;20644;-39
2024/01/06 05:09:54;;;;;;;3.57;2.60;;;4.70;99.90;;;;;;5099195;28;20259;-44
2024/01/06 05:12:21;;;;;;;3.37;1.90;;;4.70;99.90;;;;;;5097778;28;20173;-40
2024/01/06 05:14:46;;;;;;;2.90;2.00;;;4.70;99.90;;;;;;5099458;28;20437;-41
2024/01/06 05:17:12;;;;;;;5.00;2.17;;;4.70;99.90;;;;;;5097769;28;20223;-40
2024/01/06 05:19:37;;;;;;;3.20;2.40;;;4.70;99.90;;;;;;5098921;28;20177;-41
2024/01/06 05:22:03;;;;;;;4.73;2.27;;;4.80;99.90;;;;;;5096908;28;20172;-43
2024/01/06 05:24:29;;;;;;;3.20;2.60;;;4.80;99.90;;;;;;5094595;28;20176;-43
2024/01/06 05:26:54;;;;;;;5.60;3.17;;;4.80;99.90;;;;;;5096129;28;20192;-41
2024/01/06 05:29:20;;;;;;;3.87;2.60;;;4.80;99.90;;;;;;5097005;28;20262;-41
2024/01/06 05:31:47;;;;;;;8.07;3.00;;;4.80;99.90;;;;;;5096446;28;20277;-43
2024/01/06 05:34:12;;;;;;;3.97;2.83;;;4.90;99.90;;;;;;5097081;28;20165;-41
2024/01/06 05:36:38;;;;;;;3.90;2.30;;;4.90;99.90;;;;;;5096139;28;20465;-40
2024/01/06 05:39:04;;;;;;;3.50;2.60;;;4.90;99.90;;;;;;5097068;28;20173;-41
2024/01/06 05:41:29;;;;;;;5.23;2.33;;;4.90;99.90;;;;;;5096093;28;20181;-43
2024/01/06 05:43:56;;;;;;;3.70;2.90;;;4.90;99.90;;;;;;5096326;28;20419;-42
2024/01/06 05:46:24;;;;;;;5.20;2.77;;;4.80;99.90;;;;;;5095821;28;20183;-40
2024/01/06 05:48:50;;;;;;;6.63;2.37;;;4.70;99.90;;;;;;5095836;28;20423;-40
2024/01/06 05:51:16;;;;;;;5.80;2.10;;;4.70;99.90;;;;;;5095430;28;20863;-43
2024/01/06 05:53:44;;;;;;;3.87;1.97;;;4.60;99.90;;;;;;5096525;28;20531;-41
2024/01/06 05:56:10;;;;;;;3.50;1.90;;;4.70;99.90;;;;;;5096649;28;20204;-42
2024/01/06 05:58:35;;;;;;;3.17;2.07;;;4.70;99.90;;;;;;5096821;28;20448;-40
2024/01/06 06:01:01;;;;;;;5.07;2.10;;;4.70;99.90;;;;;;5097514;28;20686;-42
2024/01/06 06:03:26;;;;;;;3.27;2.03;;;4.70;96.80;;;;;;5095057;28;20255;-43
2024/01/06 06:05:53;;;;;;;8.27;3.03;;;4.70;86.90;;;;;;5095585;28;20478;-41
2024/01/06 06:08:18;;;;;;;2.97;2.33;;;4.70;99.90;;;;;;5095716;28;20169;-40
2024/01/06 06:11:00;;;;;;;3.63;1.80;;;4.70;99.90;;;;;;5095537;28;20440;-43
2024/01/06 06:13:26;;;;;;;2.53;1.67;;;4.70;1.00;;;;;;5096514;28;20192;-41
2024/01/06 06:15:52;;;;;;;8.33;2.20;;;4.60;1.00;;;;;;5095785;28;20477;-42
2024/01/06 06:18:18;;;;;;;3.67;2.60;;;4.60;1.00;;;;;;5096109;28;20160;-40
2024/01/06 06:20:43;;;;;;;7.57;2.70;;;4.60;1.00;;;;;;5096931;28;20415;-40
2024/01/06 06:23:09;;;;;;;4.17;1.90;;;4.60;1.00;;;;;;5097179;28;20249;-43
2024/01/06 06:25:40;;;;;;;4.07;1.80;;;4.60;1.00;;;;;;5098235;28;20177;-40
2024/01/06 06:28:06;;;;;;;2.80;2.00;;;4.60;1.00;;;;;;5096230;28;20856;-45
2024/01/06 06:30:32;;;;;;;2.50;2.17;;;4.60;1.00;;;;;;5096041;28;20411;-43
2024/01/06 06:32:57;;;;;;;5.50;1.60;;;4.60;1.00;;;;;;5096600;28;20521;-40
2024/01/06 06:35:23;;;;;;;3.73;1.77;;;4.60;1.00;;;;;;5095221;28;20414;-42
2024/01/06 06:37:49;;;;;;;2.77;1.50;;;4.60;1.00;;;;;;5095075;28;20567;-50
2024/01/06 06:40:15;;;;;;;3.33;2.00;;;4.70;1.00;;;;;;5094322;28;20422;-40
2024/01/06 06:42:40;;;;;;;6.53;2.10;;;4.60;99.90;;;;;;5094055;28;20219;-42
2024/01/06 06:45:06;;;;;;;4.23;2.10;;;4.70;99.90;;;;;;5094042;28;20438;-41
2024/01/06 06:47:32;;;;;;;4.70;3.03;;;4.70;99.90;;;;;;5092340;28;20176;-40
2024/01/06 06:49:57;;;;;;;3.53;2.03;;;4.70;99.90;;;;;;5093633;28;20426;-41
2024/01/06 06:52:23;;;;;;;3.90;2.70;;;4.70;99.90;;;;;;5093530;28;20181;-42
2024/01/06 06:54:48;;;;;;;3.00;1.93;;;4.60;99.90;;;;;;5093760;28;20188;-46
2024/01/06 06:57:15;;;;;;;3.03;1.90;;;4.60;99.90;;;;;;5092922;28;20208;-41
2024/01/06 06:59:41;;;;;;;3.77;2.37;;;4.60;1.00;;;;;;5104422;28;20437;-41
2024/01/06 07:02:06;;;;;;;2.73;2.30;;;4.70;1.00;;;;;;5114746;28;20711;-41
2024/01/06 07:04:32;;;;;;;3.43;2.57;;;4.60;1.00;;;;;;5113497;28;20430;-42
2024/01/06 07:06:58;;;;;;;3.97;2.50;;;4.60;1.00;;;;;;5115115;28;20270;-41
2024/01/06 07:09:24;;;;;;;4.87;2.40;;;4.60;1.00;;;;;;5113748;28;20184;-41
2024/01/06 07:11:50;;;;;;;4.10;2.30;;;4.60;1.00;;;;;;5112503;28;20554;-43
2024/01/06 07:14:15;;;;;;;5.33;2.40;;;4.60;1.00;;;;;;5112446;28;20422;-41
2024/01/06 07:16:41;;;;;;;4.60;2.17;;;4.70;1.00;;;;;;5116080;28;20469;-41
2024/01/06 07:19:06;;;;;;;4.10;2.43;;;4.70;1.00;;;;;;5104398;28;20187;-42
2024/01/06 07:21:32;;;;;;;5.23;2.27;;;4.70;1.00;;;;;;5096348;28;20176;-43
2024/01/06 07:23:57;;;;;;;3.23;2.43;;;4.70;1.00;;;;;;5096114;28;20180;-40
2024/01/06 07:26:23;;;;;;;7.80;2.77;;;4.60;1.00;;;;;;5115761;28;20180;-42
2024/01/06 07:28:48;;;;;;;3.20;2.33;;;4.60;7.00;;;;;;5114554;28;20229;-43
2024/01/06 07:31:14;;;;;;;3.27;1.83;;;4.70;39.80;;;;;;5114681;28;20171;-41
2024/01/06 07:33:40;;;;;;;3.53;2.13;;;4.70;97.10;;;;;;5115824;28;20253;-40
2024/01/06 07:36:05;;;;;;;2.90;2.27;;;4.70;63.50;;;;;;5102813;28;20208;-43
2024/01/06 07:38:31;;;;;;;5.27;2.40;;;4.70;99.90;;;;;;5095032;28;20293;-45
2024/01/06 07:40:57;;;;;;;3.33;2.77;;;4.70;99.90;;;;;;5112714;28;20492;-42
2024/01/06 07:43:22;;;;;;;2.93;2.53;;;4.60;99.90;;;;;;5115572;28;20291;-41
2024/01/06 07:45:48;;;;;;;5.80;3.60;;;4.60;99.90;;;;;;5114950;28;20184;-41
2024/01/06 07:48:15;;;;;;;3.60;3.20;;;4.70;99.90;;;;;;5116323;28;20201;-47
2024/01/06 07:50:40;;;;;;;5.10;3.63;;;4.80;99.90;;;;;;5115889;28;20650;-40
2024/01/06 07:53:06;;;;;;;7.17;3.57;;;4.80;99.90;;;;;;5116496;28;20822;-44
2024/01/06 07:55:31;;;;;;;5.50;4.10;;;4.90;99.90;;;;;;5115719;28;20214;-42
2024/01/06 07:57:57;;;;;;;6.30;4.60;;;4.90;99.90;;;;;;5115244;28;20171;-43
2024/01/06 08:00:22;;;;;;;5.03;3.63;;;4.90;99.90;;;;;;5116702;28;20227;-43
2024/01/06 08:02:48;;;;;;;3.50;3.20;;;5.00;99.90;;;;;;5114355;28;20270;-41
2024/01/06 08:05:14;;;;;;;4.80;3.47;;;5.10;99.90;;;;;;5116477;28;20172;-45
2024/01/06 08:07:40;;;;;;;11.03;4.37;;;5.10;24.50;;;;;;5113756;28;20171;-45
2024/01/06 08:10:05;;;;;;;4.77;3.53;;;5.10;1.00;;;;;;5112459;28;20516;-42
2024/01/06 08:12:31;;;;;;;14.07;12.37;;;5.20;1.00;;;;;;5111493;28;20733;-41
2024/01/06 08:14:57;;;;;;;17.90;16.00;;;5.20;1.00;;;;;;5113725;28;20528;-42
2024/01/06 08:17:22;;;;;;;10.60;9.00;;;5.20;1.00;;;;;;5095639;28;20590;-40
2024/01/06 08:19:48;;;;;;;4.63;4.10;;;5.20;99.90;;;;;;5093059;28;20200;-42
2024/01/06 08:22:14;;;;;;;4.93;3.70;;;5.30;99.90;;;;;;5093391;28;20176;-40
2024/01/06 08:24:40;;;;;;;3.90;3.57;;;5.30;99.90;;;;;;5094621;28;20732;-42
2024/01/06 08:27:05;;;;;;;3.93;3.27;;;5.40;59.00;;;;;;5103909;28;20469;-41
2024/01/06 08:29:31;;;;;;;5.03;2.87;;;5.40;99.90;;;;;;5114713;28;20584;-40
2024/01/06 08:31:56;;;;;;;3.43;2.67;;;5.40;1.00;;;;;;5114997;28;20190;-41
2024/01/06 08:34:22;;;;;;;3.63;2.60;;;5.50;1.00;;;;;;5114290;28;20496;-42
2024/01/06 08:36:48;;;;;;;3.53;2.93;;;5.50;99.90;;;;;;5113763;28;20212;-41
2024/01/06 08:39:14;;;;;;;3.90;2.80;;;5.40;1.00;;;;;;5114076;28;20512;-42
2024/01/06 08:42:29;;;;;;;3.70;2.60;;;5.40;99.90;;;;;;5113679;28;20477;-42
2024/01/06 08:44:54;;;;;;;4.70;3.20;;;5.40;1.00;;;;;;5115416;28;20240;-44
2024/01/06 08:47:20;;;;;;;5.57;3.27;;;5.40;99.90;;;;;;5115603;28;20450;-40
2024/01/06 08:49:45;;;;;;;8.37;3.50;;;5.30;1.00;;;;;;5116022;28;20574;-41
2024/01/06 08:52:11;;;;;;;4.43;2.63;;;5.30;1.00;;;;;;5114431;28;20446;-43
2024/01/06 08:54:36;;;;;;;3.33;2.93;;;5.20;1.00;;;;;;5102811;28;20299;-43
2024/01/06 08:57:02;;;;;;;3.10;2.80;;;5.20;1.00;;;;;;5093973;28;20208;-41
2024/01/06 08:59:28;;;;;;;3.60;2.80;;;5.20;1.00;;;;;;5094662;28;20608;-43
2024/01/06 09:01:53;;;;;;;3.43;2.73;;;5.20;1.00;;;;;;5093942;28;20535;-45
2024/01/06 09:04:19;;;;;;;3.10;2.80;;;5.20;1.00;;;;;;5097123;28;20169;-41
2024/01/06 09:06:46;;;;;;;6.27;3.00;;;5.20;1.00;;;;;;5097424;28;20187;-41
2024/01/06 09:09:12;;;;;;;3.27;2.70;;;5.20;1.00;;;;;;5096839;28;20179;-41
2024/01/06 09:11:37;;;;;;;3.63;2.20;;;5.30;1.00;;;;;;5096515;28;20453;-40
2024/01/06 09:14:03;;;;;;;4.77;3.77;;;5.30;99.90;;;;;;5097311;28;20481;-40
2024/01/06 09:16:29;;;;;;;3.80;2.70;;;5.30;99.90;;;;;;5096568;28;20216;-46
2024/01/06 09:18:54;;;;;;;3.60;2.70;;;5.40;99.90;;;;;;5099278;28;20835;-42
2024/01/06 09:21:20;;;;;;;3.00;2.47;;;5.40;99.90;;;;;;5116247;28;20472;-43
2024/01/06 09:23:45;;;;;;;3.30;3.00;;;5.40;24.00;;;;;;5117329;28;20271;-41
2024/01/06 09:26:11;;;;;;;3.80;3.27;;;5.50;47.70;;;;;;5115780;28;20558;-42
2024/01/06 09:28:36;;;;;;;3.03;2.73;;;5.60;1.00;;;;;;5114647;28;20176;-40
2024/01/06 09:31:02;;;;;;;5.00;3.77;;;5.50;1.00;;;;;;5114704;28;20176;-43
2024/01/06 09:33:28;;;;;;;5.00;3.70;;;5.50;1.00;;;;;;5094399;28;20169;-44
2024/01/06 09:35:53;;;;;;;6.77;3.90;;;5.60;1.00;;;;;;5094727;28;20215;-43
2024/01/06 09:38:19;;;;;;;5.57;3.87;;;5.60;99.90;;;;;;5094338;28;20165;-42
2024/01/06 09:40:45;;;;;;;4.97;3.67;;;5.70;99.90;;;;;;5106240;28;20622;-41
2024/01/06 09:43:11;;;;;;;7.87;5.00;;;5.70;69.30;;;;;;5116075;28;20184;-42
2024/01/06 09:45:38;;;;;;;3.93;3.27;;;5.70;99.90;;;;;;5116046;28;20559;-42
2024/01/06 09:48:12;;;;;;;3.37;3.00;;;5.80;99.90;;;;;;5114449;28;20410;-44
2024/01/06 09:50:41;;;;;;;3.57;2.30;;;5.80;99.90;;;;;;5114712;28;20440;-40
2024/01/06 09:53:08;;;;;;;3.23;2.93;;;5.90;1.00;;;;;;5117361;28;20880;-40
2024/01/06 09:55:35;;;;;;;2.70;2.50;;;5.90;28.20;;;;;;5100766;28;20434;-40
2024/01/06 09:58:01;;;;;;;3.87;3.23;;;5.90;62.30;;;;;;5092913;28;20560;-42
2024/01/06 10:00:27;;;;;;;3.23;2.93;;;5.90;1.00;;;;;;5094312;28;20462;-41
2024/01/06 10:02:52;;;;;;;4.67;3.10;;;6.10;1.00;;;;;;5096601;28;20437;-41
2024/01/06 10:05:18;;;;;;;3.10;2.80;;;6.20;99.90;;;;;;5102351;28;20172;-42
2024/01/06 10:07:45;;;;;;;3.30;2.40;;;6.20;99.90;;;;;;5117105;27;20426;-42
2024/01/06 10:10:10;;;;;;;3.20;2.90;;;6.30;99.90;;;;;;5116057;28;20421;-43
2024/01/06 10:12:40;;;;;;;2.20;2.00;;;6.40;99.90;;;;;;5115436;28;20425;-41
2024/01/06 10:15:10;;;;;;;2.43;1.83;;;6.50;1.00;;;;;;5115699;28;20180;-42
2024/01/06 10:17:40;;;;;;;2.83;1.90;;;6.40;1.00;;;;;;5116299;28;20507;-41
2024/01/06 10:20:10;;;;;;;3.37;2.10;;;6.50;1.00;;;;;;5110557;28;20521;-42
2024/01/06 10:22:41;;;;;;;2.90;2.07;;;6.50;1.00;;;;;;5096756;28;20451;-44
2024/01/06 10:25:10;;;;;;;2.97;2.00;;;6.60;1.00;;;;;;5097093;28;20402;-43
2024/01/06 10:27:40;;;;;;;2.83;2.13;;;6.60;99.90;;;;;;5110689;28;20445;-41
2024/01/06 10:30:08;;;;;;;6.00;4.40;;;6.50;1.00;;;;;;5113599;28;20731;-41
2024/01/06 10:32:34;;;;;;;9.97;6.80;;;6.60;1.00;;;;;;5102324;28;20437;-44
2024/01/06 10:35:03;;;;;;;2.77;2.17;;;6.80;1.00;;;;;;5116280;28;20448;-41
2024/01/06 10:37:30;;;;;;;7.83;5.33;;;6.80;1.00;;;;;;5115253;28;20476;-43
2024/01/06 10:40:18;;;;;;;5.13;4.03;;;6.70;1.00;;;;;;5116526;28;20466;-44
2024/01/06 10:42:45;;;;;;;7.20;5.53;;;6.80;1.00;;;;;;5100058;28;20446;-45
2024/01/06 10:45:14;;;;;;;3.33;2.47;;;6.70;1.00;;;;;;5095699;28;20426;-43
2024/01/06 10:47:43;;;;;;;2.57;2.37;;;6.80;1.00;;;;;;5094915;28;20525;-44
2024/01/06 10:50:09;;;;;;;1.60;1.50;;;6.70;1.00;;;;;;5094159;28;20484;-42
2024/01/06 10:52:35;;;;;;;3.23;2.93;;;6.70;1.00;;;;;;5091945;28;20783;-42
2024/01/06 10:55:02;;;;;;;2.60;2.37;;;6.60;84.40;;;;;;5093479;28;20414;-43
2024/01/06 10:57:31;;;;;;;2.30;1.70;;;6.60;99.90;;;;;;5098252;28;20552;-47
2024/01/06 10:59:58;;;;;;;2.30;1.30;;;6.60;99.90;;;;;;5116785;28;21131;-43
2024/01/06 11:02:25;;;;;;;2.57;1.40;;;6.50;1.00;;;;;;5113403;28;20455;-41
2024/01/06 11:04:51;;;;;;;3.00;2.17;;;6.20;99.90;;;;;;5113852;28;20822;-42
2024/01/06 11:07:19;;;;;;;3.27;1.80;;;6.30;1.00;;;;;;5115647;28;20425;-43
2024/01/06 11:09:58;;;;;;;13.33;9.53;;;6.30;1.00;;;;;;5115745;28;20417;-43
2024/01/06 11:12:26;;;;;;;22.10;16.33;;;6.10;99.90;;;;;;5114602;28;20532;-44
2024/01/06 11:14:51;;;;;;;9.13;5.70;;;6.20;99.90;;;;;;5115789;28;20432;-42
2024/01/06 11:17:53;;;;;;;13.03;10.47;;;6.10;1.00;;;;;;5104562;28;20762;-43
2024/01/06 11:20:28;;;;;;;5.00;4.50;;;6.20;99.90;;;;;;5094690;28;20187;-41
2024/01/06 11:22:54;;;;;;;3.00;2.60;;;6.40;49.80;;;;;;5100904;28;20746;-43
2024/01/06 11:25:21;;;;;;;2.20;2.00;;;6.50;99.90;;;;;;5115695;28;20410;-42
2024/01/06 11:27:48;;;;;;;2.90;1.57;;;6.60;1.00;;;;;;5104733;28;20438;-43
2024/01/06 11:30:22;;;;;;;1.67;1.33;;;6.70;99.90;;;;;;5094959;28;20495;-42
2024/01/06 11:32:47;;;;;;;2.10;1.90;;;6.80;1.00;;;;;;5094102;28;20423;-43
2024/01/06 11:35:18;;;;;;;1.50;1.33;;;6.90;99.90;;;;;;5092222;28;20503;-43
2024/01/06 11:37:43;;;;;;;2.03;1.77;;;7.10;1.00;;;;;;5100397;28;20231;-42
2024/01/06 11:40:25;;;;;;;1.20;0.97;;;7.20;99.90;;;;;;5115550;28;20441;-42
2024/01/06 11:43:07;;;;;;;1.73;1.50;;;7.40;1.00;;;;;;5102403;28;20245;-44
2024/01/06 11:45:35;;;;;;;1.53;0.80;;;7.40;1.00;;;;;;5094567;28;20444;-43
2024/01/06 11:48:12;;;;;;;1.03;0.83;;;7.40;1.00;;;;;;5093401;28;20434;-44
2024/01/06 11:50:38;;;;;;;1.60;1.23;;;7.40;99.90;;;;;;5094956;28;20812;-44
2024/01/06 11:53:05;;;;;;;1.03;0.70;;;7.40;1.00;;;;;;5094681;28;20728;-44
2024/01/06 11:55:34;;;;;;;3.00;1.10;;;7.50;99.90;;;;;;5092546;28;20422;-45
2024/01/06 11:58:05;;;;;;;1.37;1.07;;;7.60;99.90;;;;;;5093281;28;20518;-44
2024/01/06 12:00:31;;;;;;;1.10;0.90;;;7.70;99.90;;;;;;5093101;28;20595;-45
2024/01/06 12:03:01;;;;;;;1.93;1.30;;;7.90;99.90;;;;;;5098547;28;20433;-41
2024/01/06 12:05:27;;;;;;;1.50;1.13;;;8.00;1.00;;;;;;5115271;28;20421;-42
2024/01/06 12:07:57;;;;;;;2.40;1.37;;;7.90;1.00;;;;;;5101772;28;20449;-43
2024/01/06 12:10:25;;;;;;;2.03;1.10;;;8.00;1.00;;;;;;5091139;28;20423;-45
2024/01/06 12:13:09;;;;;;;1.87;1.13;;;8.10;99.90;;;;;;5091892;28;20437;-43
2024/01/06 12:15:38;;;;;;;1.27;0.97;;;8.10;99.90;;;;;;5093400;28;20475;-42
2024/01/06 12:18:04;;;;;;;1.90;1.03;;;7.90;1.00;;;;;;5103190;28;20445;-44
2024/01/06 12:20:31;;;;;;;1.10;0.90;;;7.80;1.00;;;;;;5114337;28;20456;-43
2024/01/06 12:22:56;;;;;;;1.00;0.90;;;7.70;1.00;;;;;;5110499;28;20677;-41
2024/01/06 12:25:23;;;;;;;1.87;0.90;;;7.70;1.00;;;;;;5111302;28;20498;-42
2024/01/06 12:27:49;;;;;;;1.33;1.07;;;7.50;99.90;;;;;;5111958;28;20176;-42
2024/01/06 12:30:19;;;;;;;1.17;0.90;;;7.40;99.90;;;;;;5114374;28;20431;-42
2024/01/06 12:32:45;;;;;;;1.60;1.23;;;7.20;99.90;;;;;;5106070;28;20442;-43
2024/01/06 12:35:12;;;;;;;1.10;0.90;;;7.10;1.00;;;;;;5075636;28;20430;-44
2024/01/06 12:37:38;;;;;;;1.10;1.00;;;7.10;99.90;;;;;;5093399;28;20872;-43
2024/01/06 12:40:10;;;;;;;1.70;1.03;;;7.00;99.90;;;;;;5096476;28;20528;-42
2024/01/06 12:42:36;;;;;;;1.90;1.30;;;7.10;99.90;;;;;;5100171;28;20771;-43
2024/01/06 12:45:02;;;;;;;1.30;1.10;;;7.10;99.90;;;;;;5112581;28;20497;-41
2024/01/06 12:47:28;;;;;;;1.67;1.10;;;7.20;99.90;;;;;;5116714;28;20188;-45
2024/01/06 12:49:54;;;;;;;2.73;1.70;;;7.20;99.90;;;;;;5099509;28;20873;-44
2024/01/06 12:52:19;;;;;;;2.23;1.10;;;7.30;99.90;;;;;;5099836;28;20195;-42
2024/01/06 12:54:45;;;;;;;1.33;1.23;;;7.30;99.90;;;;;;5115738;28;20207;-46
2024/01/06 12:57:11;;;;;;;1.87;1.30;;;7.10;99.90;;;;;;5114597;28;20206;-42
2024/01/06 12:59:37;;;;;;;2.00;1.50;;;7.10;1.00;;;;;;5099248;28;20198;-44